createdAt,value
2018-01-22T00:04:47.435Z,5.69
2018-01-22T00:09:48.816Z,5.67
2018-01-22T00:14:50.178Z,5.59
2018-01-22T00:19:51.519Z,5.53
2018-01-22T00:24:52.875Z,5.62
2018-01-22T00:29:54.200Z,5.66
2018-01-22T00:34:56.290Z,5.65
2018-01-22T00:39:57.619Z,5.51
2018-01-22T00:44:59.744Z,5.59
2018-01-22T00:50:01.079Z,5.70
2018-01-22T00:55:02.402Z,5.44
2018-01-22T01:00:04.528Z,5.33
2018-01-22T01:05:05.851Z,5.42
2018-01-22T01:10:07.167Z,5.53
2018-01-22T01:15:08.577Z,5.66
2018-01-22T01:20:09.951Z,5.62
2018-01-22T01:25:11.331Z,5.63
2018-01-22T01:30:12.657Z,5.57
2018-01-22T01:35:14.000Z,5.65
2018-01-22T01:40:15.355Z,5.58
2018-01-22T01:45:16.711Z,5.64
2018-01-22T01:50:18.872Z,5.68
2018-01-22T01:55:20.293Z,5.76
2018-01-22T02:00:21.663Z,5.67
2018-01-22T02:05:22.985Z,5.76
2018-01-22T02:10:24.273Z,5.86
2018-01-22T02:15:26.326Z,5.88
2018-01-22T02:20:27.707Z,5.81
2018-01-22T02:25:29.055Z,5.90
2018-01-22T02:30:30.372Z,5.86
2018-01-22T02:35:31.702Z,5.90
2018-01-22T02:40:32.990Z,5.92
2018-01-22T02:45:34.314Z,5.92
2018-01-22T02:50:36.395Z,5.89
2018-01-22T02:55:37.766Z,5.92
2018-01-22T03:00:39.092Z,5.86
2018-01-22T03:05:40.420Z,5.89
2018-01-22T03:10:41.748Z,6.03
2018-01-22T03:15:43.063Z,5.93
2018-01-22T03:20:44.421Z,5.91
2018-01-22T03:25:45.758Z,5.96
2018-01-22T03:30:47.849Z,5.81
2018-01-22T03:35:49.895Z,5.80
2018-01-22T03:40:51.918Z,5.84
2018-01-22T03:45:53.873Z,5.95
2018-01-22T03:50:55.275Z,5.87
2018-01-22T03:55:57.335Z,5.85
2018-01-22T04:00:58.670Z,5.97
2018-01-22T04:06:00.715Z,5.94
2018-01-22T04:11:02.076Z,5.90
2018-01-22T04:16:03.387Z,5.96
2018-01-22T04:21:04.711Z,5.85
2018-01-22T04:26:06.027Z,5.88
2018-01-22T04:31:08.136Z,5.91
2018-01-22T04:36:10.231Z,5.92
2018-01-22T04:41:11.575Z,6.06
2018-01-22T04:46:12.906Z,6.20
2018-01-22T04:51:14.215Z,6.16
2018-01-22T04:56:16.255Z,6.12
2018-01-22T05:01:17.587Z,6.09
2018-01-22T05:06:18.930Z,6.21
2018-01-22T05:11:20.247Z,6.15
2018-01-22T05:16:21.591Z,6.10
2018-01-22T05:21:22.919Z,5.89
2018-01-22T05:26:24.247Z,5.70
2018-01-22T05:31:25.592Z,5.59
2018-01-22T05:36:26.899Z,5.47
2018-01-22T05:41:28.211Z,5.43
2018-01-22T05:46:29.535Z,5.35
2018-01-22T05:51:30.911Z,5.25
2018-01-22T05:56:32.219Z,5.14
2018-01-22T06:01:33.552Z,5.07
2018-01-22T06:06:34.895Z,5.05
2018-01-22T06:11:36.251Z,5.12
2018-01-22T06:16:38.319Z,5.11
2018-01-22T06:21:39.668Z,5.04
2018-01-22T06:26:41.116Z,5.10
2018-01-22T06:31:42.467Z,5.11
2018-01-22T06:36:43.786Z,5.20
2018-01-22T06:41:45.144Z,5.23
2018-01-22T06:46:46.451Z,5.20
2018-01-22T06:51:47.756Z,5.28
2018-01-22T06:56:49.095Z,5.21
2018-01-22T07:01:50.403Z,5.21
2018-01-22T07:06:51.743Z,5.28
2018-01-22T07:11:53.055Z,5.25
2018-01-22T07:16:55.162Z,5.37
2018-01-22T07:21:57.240Z,5.39
2018-01-22T07:26:58.556Z,5.34
2018-01-22T07:32:00.718Z,5.42
2018-01-22T07:37:02.086Z,5.42
2018-01-22T07:42:03.463Z,5.48
2018-01-22T07:47:04.867Z,5.50
2018-01-22T07:52:06.252Z,5.34
2018-01-22T07:57:07.551Z,5.46
2018-01-22T08:02:08.898Z,5.41
2018-01-22T08:07:10.978Z,5.42
2018-01-22T08:12:12.373Z,5.63
2018-01-22T08:17:13.721Z,5.61
2018-01-22T08:22:15.077Z,5.72
2018-01-22T08:27:17.131Z,5.72
2018-01-22T08:32:18.456Z,5.77
2018-01-22T08:37:19.774Z,5.86
2018-01-22T08:42:21.911Z,5.75
2018-01-22T08:47:23.214Z,5.85
2018-01-22T08:52:24.543Z,5.95
2018-01-22T08:57:26.624Z,5.94
2018-01-22T09:02:27.970Z,5.94
2018-01-22T09:07:29.336Z,6.10
2018-01-22T09:12:30.664Z,6.12
2018-01-22T09:17:32.009Z,6.17
2018-01-22T09:22:33.358Z,6.22
2018-01-22T09:27:34.719Z,6.25
2018-01-22T09:32:36.023Z,6.14
2018-01-22T09:37:37.387Z,6.15
2018-01-22T09:42:39.477Z,6.23
2018-01-22T09:47:41.530Z,6.38
2018-01-22T09:52:42.868Z,6.39
2018-01-22T09:57:44.947Z,6.28
2018-01-22T10:02:46.294Z,6.41
2018-01-22T10:07:47.644Z,6.41
2018-01-22T10:12:48.985Z,6.46
2018-01-22T10:17:50.335Z,6.66
2018-01-22T10:22:52.409Z,6.72
2018-01-22T10:27:53.712Z,6.82
2018-01-22T10:32:55.047Z,7.03
2018-01-22T10:37:56.395Z,7.02
2018-01-22T10:42:57.736Z,7.08
2018-01-22T10:47:59.068Z,7.06
2018-01-22T10:53:00.387Z,7.11
2018-01-22T10:58:02.476Z,7.19
2018-01-22T11:03:03.800Z,7.26
2018-01-22T11:08:05.990Z,7.43
2018-01-22T11:13:08.053Z,7.48
2018-01-22T11:18:09.366Z,7.39
2018-01-22T11:23:10.692Z,7.49
2018-01-22T11:28:12.028Z,7.53
2018-01-22T11:33:13.377Z,7.57
2018-01-22T11:38:14.727Z,7.65
2018-01-22T11:43:16.057Z,7.70
2018-01-22T11:48:17.392Z,7.71
2018-01-22T11:53:18.747Z,7.69
2018-01-22T11:58:20.120Z,7.81
2018-01-22T12:03:21.478Z,7.80
2018-01-22T12:08:22.859Z,7.87
2018-01-22T12:13:24.225Z,7.92
2018-01-22T12:18:25.546Z,7.93
2018-01-22T12:23:26.938Z,7.92
2018-01-22T12:28:28.284Z,7.95
2018-01-22T12:33:29.587Z,7.94
2018-01-22T12:38:30.940Z,7.99
2018-01-22T12:43:32.235Z,8.02
2018-01-22T12:48:33.567Z,8.08
2018-01-22T12:53:34.904Z,7.96
2018-01-22T12:58:36.252Z,7.84
2018-01-22T13:03:37.579Z,7.82
2018-01-22T13:08:38.923Z,7.83
2018-01-22T13:13:40.251Z,7.96
2018-01-22T13:18:41.582Z,7.91
2018-01-22T13:23:42.932Z,7.93
2018-01-22T13:28:44.996Z,8.03
2018-01-22T13:33:46.357Z,7.92
2018-01-22T13:38:47.676Z,8.08
2018-01-22T13:43:49.013Z,8.07
2018-01-22T13:48:50.357Z,8.14
2018-01-22T13:53:51.765Z,8.17
2018-01-22T13:58:53.808Z,8.25
2018-01-22T14:03:55.252Z,8.25
2018-01-22T14:08:56.698Z,8.27
2018-01-22T14:13:58.011Z,8.39
2018-01-22T14:18:59.335Z,8.50
2018-01-22T14:24:01.425Z,8.50
2018-01-22T14:29:02.806Z,8.53
2018-01-22T14:34:04.163Z,8.61
2018-01-22T14:39:05.524Z,8.49
2018-01-22T14:44:06.848Z,8.61
2018-01-22T14:49:08.147Z,8.61
2018-01-22T14:54:09.490Z,8.64
2018-01-22T14:59:11.555Z,8.64
2018-01-22T15:04:12.883Z,8.73
2018-01-22T15:09:14.987Z,8.69
2018-01-22T15:14:17.048Z,8.62
2018-01-22T15:19:18.376Z,8.74
2018-01-22T15:24:20.474Z,8.69
2018-01-22T15:29:21.791Z,8.69
2018-01-22T15:34:23.871Z,8.54
2018-01-22T15:39:25.208Z,8.65
2018-01-22T15:44:26.560Z,8.56
2018-01-22T15:49:28.607Z,8.64
2018-01-22T15:54:29.971Z,8.78
2018-01-22T15:59:32.027Z,8.69
2018-01-22T16:04:33.359Z,8.69
2018-01-22T16:09:35.452Z,8.72
2018-01-22T16:14:36.770Z,8.72
2018-01-22T16:19:38.095Z,8.61
2018-01-22T16:24:39.423Z,8.66
2018-01-22T16:29:40.740Z,8.68
2018-01-22T16:34:42.118Z,8.69
2018-01-22T16:39:44.199Z,8.66
2018-01-22T16:44:45.574Z,8.68
2018-01-22T16:49:46.898Z,8.65
2018-01-22T16:54:48.988Z,8.73
2018-01-22T16:59:50.303Z,8.67
2018-01-22T17:04:52.359Z,8.75
2018-01-22T17:09:53.707Z,8.70
2018-01-22T17:14:55.031Z,8.71
2018-01-22T17:19:56.346Z,8.77
2018-01-22T17:24:57.753Z,8.83
2018-01-22T17:30:00.543Z,8.94
2018-01-22T17:35:01.978Z,9.03
2018-01-22T17:40:04.150Z,8.98
2018-01-22T17:45:05.602Z,8.97
2018-01-22T17:50:06.950Z,8.99
2018-01-22T17:55:08.294Z,9.06
2018-01-22T18:00:09.640Z,9.13
2018-01-22T18:05:11.720Z,9.00
2018-01-22T18:10:13.056Z,9.02
2018-01-22T18:15:14.366Z,9.07
2018-01-22T18:20:15.735Z,9.15
2018-01-22T18:25:17.194Z,8.99
2018-01-22T18:30:18.506Z,9.23
2018-01-22T18:35:20.913Z,9.17
2018-01-22T18:40:22.278Z,9.23
2018-01-22T18:45:23.630Z,9.31
2018-01-22T18:50:24.967Z,9.25
2018-01-22T18:55:26.375Z,9.26
2018-01-22T19:00:28.496Z,9.28
2018-01-22T19:05:29.862Z,9.27
2018-01-22T19:10:31.364Z,9.21
2018-01-22T19:15:34.683Z,9.19
2018-01-22T19:20:36.360Z,9.30
2018-01-22T19:25:38.980Z,9.33
2018-01-22T19:30:40.315Z,9.23
2018-01-22T19:35:42.248Z,9.08
2018-01-22T19:40:43.623Z,9.12
2018-01-22T19:45:44.980Z,9.08
2018-01-22T19:50:46.868Z,9.15
2018-01-22T19:55:48.302Z,9.07
2018-01-22T20:00:49.794Z,8.90
2018-01-22T20:05:51.167Z,9.02
2018-01-22T20:10:53.252Z,9.01
2018-01-22T20:15:54.695Z,9.16
2018-01-22T20:20:56.022Z,9.08
2018-01-22T20:25:58.410Z,9.09
2018-01-22T20:30:59.856Z,9.08
2018-01-22T20:36:01.963Z,9.22
2018-01-22T20:41:04.392Z,9.31
2018-01-22T20:46:06.469Z,9.16
2018-01-22T20:51:07.820Z,9.18
2018-01-22T20:56:09.161Z,9.09
2018-01-22T21:01:10.564Z,9.13
2018-01-22T21:06:12.986Z,9.25
2018-01-22T21:11:14.408Z,9.15
2018-01-22T21:16:16.685Z,9.20
2018-01-22T21:21:18.784Z,9.30
2018-01-22T21:26:20.935Z,9.22
2018-01-22T21:31:22.361Z,9.12
2018-01-22T21:36:23.948Z,9.01
2018-01-22T21:41:25.524Z,9.08
2018-01-22T21:46:26.949Z,9.07
2018-01-22T21:51:28.374Z,9.27
2018-01-22T21:56:31.263Z,9.25
2018-01-22T22:01:32.701Z,9.17
2018-01-22T22:06:34.058Z,9.31
2018-01-22T22:11:35.355Z,9.24
2018-01-22T22:16:36.676Z,9.23
2018-01-22T22:21:38.088Z,9.27
2018-01-22T22:26:39.666Z,9.21
2018-01-22T22:31:40.992Z,9.16
2018-01-22T22:36:42.374Z,9.20
2018-01-22T22:41:43.731Z,9.25
2018-01-22T22:46:45.094Z,9.26
2018-01-22T22:51:47.151Z,9.19
2018-01-22T22:56:49.307Z,9.16
2018-01-22T23:01:50.731Z,9.13
2018-01-22T23:06:52.185Z,9.19
2018-01-22T23:11:53.572Z,9.18
2018-01-22T23:16:55.825Z,9.24
2018-01-22T23:21:57.146Z,9.10
2018-01-22T23:26:58.441Z,9.15
2018-01-22T23:31:59.752Z,9.17
2018-01-22T23:37:01.072Z,9.23
2018-01-22T23:42:02.559Z,9.29
2018-01-22T23:47:03.971Z,9.27
2018-01-22T23:52:05.283Z,9.33
2018-01-22T23:57:06.654Z,9.28
